Oaklyn, New Jersey
Current Conditions -  °F | °C
As of 7:54 PM on Tuesday 25 Nov 2014 (Local Time) from KPHL Reporting Station
Broken Clouds Broken Clouds  
Wind Chill: 45°   Ceiling: 22000
Heat Index: 49°   Visibility: 10mi
Dew Point: 31°   Wind: 8mph
Humidity: 50%   Direction: 250°WSW
Pressure: 30.13"   Gusts: NA
Location:  39.9°N, 75.08°W
Report Text: KPHL 260054Z 25007KT 10SM BKN220 09/M01 A3013 RMK AO2 SLP203 T00941006 $
Loading
Personal Weather Stations






























Interactive Weather Map New forecast layout! Learn more

10-Day Weather Forecast

Advertisements
Track Severe Weather on mobile